Time;durP1;ratioP1;P1;durP2;ratioP2;P2;SDS_P1;SDS_P2;PMS_P1;PMS_P2;Temp;Humidity;BMP_temperature;BMP_pressure;BME280_temperature;BME280_humidity;BME280_pressure;Samples;Min_cycle;Max_cycle;Signal;HPM_P1;HPM_P2
2021/09/28 00:01:18;;;;;;;7.70;4.00;;;;;;;11.43;73.46;99817.64;27252;1209;3025912;-66
2021/09/28 00:03:48;;;;;;;6.00;4.20;;;;;;;11.18;74.35;99819.97;27255;1216;3070111;-67
2021/09/28 00:06:17;;;;;;;11.10;4.40;;;;;;;10.96;75.29;99822.62;27257;1216;3026477;-65
2021/09/28 00:08:46;;;;;;;7.70;4.60;;;;;;;10.80;76.11;99822.81;27338;1216;3053311;-67
2021/09/28 00:11:16;;;;;;;5.00;2.90;;;;;;;10.78;76.44;99822.73;27261;1216;3025854;-67
2021/09/28 00:14:04;;;;;;;6.70;3.40;;;;;;;11.29;74.79;99810.05;27213;1217;3049276;-68
2021/09/28 00:16:33;;;;;;;5.30;3.30;;;;;;;11.59;73.28;99816.73;27290;1216;3026514;-68
2021/09/28 00:19:02;;;;;;;5.90;3.80;;;;;;;11.59;73.34;99807.90;27309;1216;3070069;-65
2021/09/28 00:21:51;;;;;;;6.20;4.00;;;;;;;11.39;73.76;99813.46;27293;1216;3049114;-69
2021/09/28 00:24:20;;;;;;;5.50;3.90;;;;;;;11.14;74.74;99818.42;27261;1216;3026067;-68
2021/09/28 00:26:49;;;;;;;5.70;3.90;;;;;;;10.96;75.53;99816.67;27270;1216;3028060;-67
2021/09/28 00:29:18;;;;;;;4.30;2.70;;;;;;;10.79;76.50;99817.09;27261;1216;3048370;-68
2021/09/28 00:31:50;;;;;;;4.90;3.40;;;;;;;11.23;75.43;99813.70;27273;1216;3026278;-66
2021/09/28 00:34:18;;;;;;;8.10;3.30;;;;;;;11.48;74.22;99815.60;27302;1216;3027549;-65
2021/09/28 00:36:54;;;;;;;6.10;3.90;;;;;;;11.48;73.95;99811.05;27260;1216;3051927;-67
2021/09/28 00:39:23;;;;;;;7.60;4.20;;;;;;;11.22;74.71;99813.75;27296;1216;3026247;-68
2021/09/28 00:41:52;;;;;;;5.90;4.40;;;;;;;11.03;75.46;99813.64;27265;1216;3069713;-69
2021/09/28 00:44:39;;;;;;;6.30;3.90;;;;;;;10.70;76.94;99813.20;27298;1216;3025717;-67
2021/09/28 00:47:10;;;;;;;5.20;3.20;;;;;;;10.51;77.83;99814.56;27292;1216;3051045;-68
2021/09/28 00:49:43;;;;;;;5.10;3.30;;;;;;;11.10;76.08;99812.38;27246;1216;3026088;-68
2021/09/28 00:52:15;;;;;;;5.70;3.70;;;;;;;11.37;74.65;99809.77;27246;1216;3055634;-67
2021/09/28 00:54:45;;;;;;;6.50;4.00;;;;;;;11.27;74.80;99808.37;27227;1216;3025955;-65
2021/09/28 00:57:14;;;;;;;6.00;4.30;;;;;;;11.07;75.25;99813.20;27231;1216;3026108;-68
2021/09/28 00:59:44;;;;;;;8.60;4.10;;;;;;;10.79;76.28;99816.90;27220;1209;3026299;-68
2021/09/28 01:02:14;;;;;;;5.70;4.10;;;;;;;10.65;77.10;99819.77;27229;1216;3025943;-66
2021/09/28 01:04:43;;;;;;;3.90;3.00;;;;;;;10.56;77.62;99821.30;27227;1216;3027786;-67
2021/09/28 01:07:12;;;;;;;7.10;3.00;;;;;;;10.96;76.27;99818.73;27213;1216;3053325;-66
2021/09/28 01:09:41;;;;;;;5.30;3.90;;;;;;;11.23;75.06;99823.84;27203;1216;3028981;-68
2021/09/28 01:12:10;;;;;;;6.30;3.50;;;;;;;11.24;74.67;99829.93;27218;1216;3050845;-66
2021/09/28 01:14:42;;;;;;;6.00;3.60;;;;;;;11.03;75.56;99834.80;27227;1216;3026447;-66
2021/09/28 01:17:31;;;;;;;5.50;4.00;;;;;;;10.72;76.51;99838.81;27234;1217;3068609;-67
2021/09/28 01:20:00;;;;;;;6.60;4.30;;;;;;;10.50;77.30;99841.40;27222;1216;3026704;-66
2021/09/28 01:22:30;;;;;;;4.10;3.00;;;;;;;10.29;78.21;99845.48;27213;1216;3050770;-67
2021/09/28 01:24:59;;;;;;;5.40;3.30;;;;;;;10.82;76.98;99844.08;27196;1216;3026014;-66
2021/09/28 01:27:34;;;;;;;5.00;3.40;;;;;;;11.26;74.71;99836.17;27232;1216;3052169;-69
2021/09/28 01:30:05;;;;;;;5.00;3.90;;;;;;;11.15;74.66;99834.17;27203;1218;3052739;-67
2021/09/28 01:32:34;;;;;;;6.10;4.10;;;;;;;11.04;75.14;99836.91;27241;1216;3026691;-66
2021/09/28 01:35:04;;;;;;;8.30;4.10;;;;;;;10.85;75.63;99837.06;27247;1216;3028353;-68
2021/09/28 01:37:33;;;;;;;7.00;4.20;;;;;;;10.74;75.60;99838.52;27232;1216;3029345;-67
2021/09/28 01:40:03;;;;;;;4.70;3.20;;;;;;;10.49;76.77;99838.84;27233;1217;3026832;-68
2021/09/28 01:42:33;;;;;;;4.40;3.30;;;;;;;10.96;75.67;99833.80;27248;1216;3026015;-68
2021/09/28 01:45:02;;;;;;;6.10;4.10;;;;;;;11.42;73.31;99829.61;27263;1212;3026168;-69
2021/09/28 01:47:32;;;;;;;9.80;4.70;;;;;;;11.33;73.33;99831.91;27253;1216;3051752;-67
2021/09/28 01:50:02;;;;;;;8.20;4.60;;;;;;;11.09;73.88;99834.50;27245;1216;3026066;-64
2021/09/28 01:52:35;;;;;;;7.00;4.50;;;;;;;10.78;74.73;99836.02;27208;1216;3027447;-65
2021/09/28 01:55:06;;;;;;;8.80;5.20;;;;;;;10.48;75.82;99842.27;27296;1216;3054873;-69
2021/09/28 01:57:35;;;;;;;8.00;3.80;;;;;;;10.34;76.38;99839.27;27267;1218;3026439;-65
2021/09/28 02:00:07;;;;;;;7.10;4.00;;;;;;;10.67;75.57;99838.95;27244;1216;3026397;-68
2021/09/28 02:02:41;;;;;;;;;;;;;;;11.21;73.59;99833.98;27242;1216;3050813;-67
2021/09/28 02:05:09;;;;;;;7.30;4.10;;;;;;;11.24;73.00;99836.45;27248;1216;3026499;-68
2021/09/28 02:07:39;;;;;;;7.40;4.70;;;;;;;11.04;73.02;99834.04;27230;1217;3070110;-67
2021/09/28 02:10:09;;;;;;;7.40;5.20;;;;;;;10.89;73.47;99840.34;27248;1216;3027251;-68
2021/09/28 02:12:38;;;;;;;9.20;5.40;;;;;;;10.56;74.53;99846.35;27188;1217;3053249;-68
2021/09/28 02:15:07;;;;;;;6.60;4.80;;;;;;;10.30;75.53;99845.08;27258;1216;3027432;-68
2021/09/28 02:17:36;;;;;;;11.50;4.10;;;;;;;10.17;76.10;99851.91;27233;1218;3052188;-66
2021/09/28 02:20:07;;;;;;;7.10;4.30;;;;;;;10.60;74.97;99844.05;27240;1216;3027025;-67
2021/09/28 02:22:37;;;;;;;9.30;4.70;;;;;;;10.95;73.62;99845.95;27200;1217;3027264;-67
2021/09/28 02:25:08;;;;;;;5.70;4.20;;;;;;;11.05;72.97;99840.71;27267;1218;3026749;-67
2021/09/28 02:27:37;;;;;;;7.20;5.10;;;;;;;10.87;73.13;99844.29;27250;1216;3026286;-67
2021/09/28 02:30:06;;;;;;;7.60;5.80;;;;;;;10.61;73.85;99841.68;27205;1216;3026486;-67
2021/09/28 02:32:36;;;;;;;8.80;5.90;;;;;;;10.48;74.12;99843.80;27227;1216;3048384;-68
2021/09/28 02:35:05;;;;;;;9.10;6.00;;;;;;;10.30;74.72;99843.90;27250;1218;3026292;-67
2021/09/28 02:37:34;;;;;;;6.30;4.70;;;;;;;10.22;74.73;99845.52;27266;1216;3070538;-67
2021/09/28 02:40:04;;;;;;;8.00;4.50;;;;;;;10.72;73.74;99847.23;27236;1216;3029025;-66
2021/09/28 02:42:33;;;;;;;12.10;4.80;;;;;;;11.17;72.29;99846.30;27245;1218;3053287;-65
2021/09/28 02:45:04;;;;;;;15.20;5.50;;;;;;;11.20;71.72;99850.15;27208;1215;3026075;-66
2021/09/28 02:47:33;;;;;;;11.00;4.90;;;;;;;10.99;72.07;99852.05;27248;1215;3051607;-67
2021/09/28 02:50:04;;;;;;;12.10;6.60;;;;;;;10.70;72.84;99858.04;27219;1215;3026421;-67
2021/09/28 02:52:34;;;;;;;8.50;5.60;;;;;;;10.40;73.70;99857.72;27222;1215;3026927;-66
2021/09/28 02:55:06;;;;;;;10.10;5.70;;;;;;;10.17;74.48;99858.36;27239;1215;3026812;-69
2021/09/28 02:57:35;;;;;;;12.20;4.90;;;;;;;10.03;75.22;99861.91;27257;1215;3053541;-68
2021/09/28 03:00:06;;;;;;;11.00;5.20;;;;;;;10.57;74.17;99861.20;27209;1215;3026168;-68
2021/09/28 03:02:36;;;;;;;9.80;5.00;;;;;;;11.02;72.30;99860.65;27223;1216;3026313;-65
2021/09/28 03:05:05;;;;;;;7.60;5.20;;;;;;;11.03;71.90;99861.27;27267;1216;3025952;-67
2021/09/28 03:07:36;;;;;;;11.80;5.50;;;;;;;10.88;71.92;99866.15;27236;1215;3069942;-64
2021/09/28 03:10:06;;;;;;;11.50;5.60;;;;;;;10.62;72.37;99869.00;27238;1215;3028168;-67
2021/09/28 03:12:34;;;;;;;9.50;5.80;;;;;;;10.38;73.11;99870.27;27249;1215;3026071;-67
2021/09/28 03:15:06;;;;;;;8.70;6.50;;;;;;;10.17;73.81;99877.27;27238;1215;3026501;-68
2021/09/28 03:17:37;;;;;;;10.80;5.10;;;;;;;9.97;74.62;99878.68;27241;1215;3026491;-65
2021/09/28 03:20:26;;;;;;;7.40;4.40;;;;;;;10.61;73.13;99872.36;27263;1216;3049991;-68
2021/09/28 03:22:57;;;;;;;7.60;5.10;;;;;;;11.06;71.66;99870.98;27270;1215;3026082;-68
2021/09/28 03:25:26;;;;;;;11.30;5.40;;;;;;;10.96;71.38;99872.52;27226;1215;3025877;-66
2021/09/28 03:27:54;;;;;;;9.90;6.10;;;;;;;10.76;71.69;99876.09;27231;1215;3051233;-65
2021/09/28 03:30:24;;;;;;;13.10;6.40;;;;;;;10.41;72.65;99884.65;27276;1215;3026909;-66
2021/09/28 03:32:55;;;;;;;11.00;6.60;;;;;;;10.09;73.79;99891.86;27251;1215;3054891;-70
2021/09/28 03:35:24;;;;;;;13.20;6.50;;;;;;;9.84;74.77;99893.14;27235;1209;3026422;-68
2021/09/28 03:37:53;;;;;;;9.20;5.30;;;;;;;9.71;75.25;99893.10;27276;1209;3026452;-66
2021/09/28 03:40:22;;;;;;;9.30;5.20;;;;;;;10.01;74.76;99899.30;27261;1215;3057444;-66
2021/09/28 03:42:52;;;;;;;10.60;5.80;;;;;;;10.33;73.43;99896.77;27210;1215;3026681;-69
2021/09/28 03:45:21;;;;;;;10.80;6.20;;;;;;;10.33;73.02;99898.17;27277;1215;3026474;-69
2021/09/28 03:47:49;;;;;;;11.60;6.20;;;;;;;10.11;73.84;99901.56;27233;1215;3057079;-67
2021/09/28 03:50:18;;;;;;;9.50;6.60;;;;;;;9.81;74.87;99905.02;27192;1215;3026694;-69
2021/09/28 03:52:47;;;;;;;13.20;7.30;;;;;;;9.55;75.76;99907.02;27222;1215;3053874;-69
2021/09/28 03:57:51;;;;;;;11.80;6.50;;;;;;;9.37;76.30;99911.58;34363;1219;3026637;-69
2021/09/28 04:00:21;;;;;;;14.20;7.70;;;;;;;10.10;74.80;99913.85;27215;1220;3026366;-68
2021/09/28 04:02:50;;;;;;;13.40;7.00;;;;;;;10.80;71.23;99910.04;27263;1219;3027131;-68
2021/09/28 04:05:19;;;;;;;17.20;7.10;;;;;;;10.49;71.99;99915.55;27225;1219;3026380;-66
2021/09/28 04:07:48;;;;;;;14.90;6.60;;;;;;;10.39;72.45;99918.17;27261;1219;3051626;-71
2021/09/28 04:10:17;;;;;;;14.00;8.30;;;;;;;10.17;72.89;99919.11;27247;1218;3026716;-70
2021/09/28 04:13:07;;;;;;;19.20;7.20;;;;;;;9.95;73.73;99923.91;27200;1219;3049201;-69
2021/09/28 04:15:39;;;;;;;15.60;7.40;;;;;;;9.74;74.46;99928.46;27220;1219;3026041;-68
2021/09/28 04:18:12;;;;;;;8.10;4.90;;;;;;;9.66;74.90;99928.49;27229;1219;3026044;-68
2021/09/28 04:20:57;;;;;;;8.30;5.60;;;;;;;10.29;73.43;99927.95;27244;1219;3057460;-68
2021/09/28 04:23:28;;;;;;;15.60;6.60;;;;;;;10.68;71.68;99919.99;27241;1219;3026009;-66
2021/09/28 04:25:57;;;;;;;12.30;7.40;;;;;;;10.54;71.79;99925.45;27264;1210;3026754;-66
2021/09/28 04:28:26;;;;;;;12.40;7.60;;;;;;;10.41;72.17;99925.60;27204;1219;3055351;-69
2021/09/28 04:30:55;;;;;;;14.40;7.50;;;;;;;10.39;71.98;99925.70;27203;1219;3026128;-67
2021/09/28 04:33:24;;;;;;;13.10;7.80;;;;;;;10.24;72.41;99926.31;27189;1220;3050851;-68
2021/09/28 04:35:53;;;;;;;20.70;9.10;;;;;;;10.15;72.45;99929.55;27236;1219;3026118;-69
2021/09/28 04:38:21;;;;;;;12.10;7.00;;;;;;;10.01;73.44;99926.78;27226;1219;3051464;-68
2021/09/28 04:40:53;;;;;;;14.20;6.50;;;;;;;10.41;72.69;99931.38;27186;1219;3025739;-70
2021/09/28 04:43:22;;;;;;;20.10;6.80;;;;;;;11.04;71.05;99927.52;27226;1219;3028357;-71
2021/09/28 04:45:51;;;;;;;10.90;6.30;;;;;;;11.14;69.76;99929.74;27242;1219;3051523;-70
2021/09/28 04:48:21;;;;;;;11.40;7.10;;;;;;;10.89;70.35;99931.33;27219;1218;3026801;-69
2021/09/28 04:50:52;;;;;;;14.30;7.90;;;;;;;10.78;70.81;99932.98;27246;1219;3028553;-64
2021/09/28 04:53:24;;;;;;;12.60;7.50;;;;;;;10.65;70.99;99938.02;27207;1218;3054135;-65
2021/09/28 04:55:55;;;;;;;19.60;8.70;;;;;;;10.50;71.58;99937.23;27208;1219;3026884;-67
2021/09/28 04:58:26;;;;;;;16.80;9.10;;;;;;;10.40;71.79;99932.69;27227;1219;3026418;-67
2021/09/28 05:00:55;;;;;;;11.40;6.80;;;;;;;10.38;71.93;99936.08;27264;1219;3026813;-70
2021/09/28 05:03:24;;;;;;;17.00;6.10;;;;;;;11.01;70.89;99931.90;27228;1218;3025851;-67
2021/09/28 05:05:53;;;;;;;21.20;7.10;;;;;;;11.62;68.77;99926.70;27212;1218;3054828;-71
2021/09/28 05:08:41;;;;;;;12.00;6.90;;;;;;;11.72;68.05;99927.38;27214;1219;3052419;-68
2021/09/28 05:11:12;;;;;;;11.30;6.80;;;;;;;11.67;68.14;99925.02;27270;1219;3026303;-68
2021/09/28 05:13:41;;;;;;;15.20;6.90;;;;;;;11.55;68.49;99930.47;27276;1217;3025970;-69
2021/09/28 05:16:10;;;;;;;20.40;7.80;;;;;;;11.44;68.59;99931.27;27291;1217;3026052;-70
2021/09/28 05:18:45;;;;;;;17.20;7.90;;;;;;;11.28;68.96;99938.61;27255;1218;3053136;-66
2021/09/28 05:21:14;;;;;;;14.80;7.50;;;;;;;11.18;69.22;99943.41;27292;1217;3026399;-67
2021/09/28 05:23:46;;;;;;;18.80;8.10;;;;;;;11.02;69.83;99946.35;27434;1216;3048931;-70
2021/09/28 05:26:15;;;;;;;13.00;6.40;;;;;;;10.94;70.18;99947.16;27446;1217;3026182;-66
2021/09/28 05:28:43;;;;;;;17.60;6.80;;;;;;;11.37;69.45;99944.40;27256;1219;3026518;-66
2021/09/28 05:31:13;;;;;;;17.50;6.90;;;;;;;11.89;67.77;99943.75;27231;1217;3049180;-69
2021/09/28 05:33:43;;;;;;;14.20;6.90;;;;;;;12.02;67.43;99950.94;27224;1217;3025905;-67
2021/09/28 05:36:12;;;;;;;21.40;8.00;;;;;;;11.98;67.24;99955.75;27238;1217;3027587;-66
2021/09/28 05:38:40;;;;;;;19.90;7.70;;;;;;;11.57;68.01;99957.67;27256;1217;3048638;-65
2021/09/28 05:41:09;;;;;;;24.40;8.10;;;;;;;11.42;68.87;99964.30;27221;1208;3026038;-67
2021/09/28 05:43:39;;;;;;;19.30;8.70;;;;;;;11.34;69.31;99961.43;27218;1218;3058143;-68
2021/09/28 05:46:08;;;;;;;18.60;8.20;;;;;;;11.19;69.48;99963.52;27229;1217;3026573;-68
2021/09/28 05:48:37;;;;;;;17.90;8.80;;;;;;;11.15;69.39;99965.83;27265;1218;3051195;-69
2021/09/28 05:51:14;;;;;;;18.90;6.80;;;;;;;11.08;69.45;99963.77;27238;1208;3025944;-66
2021/09/28 05:53:45;;;;;;;14.40;6.30;;;;;;;11.65;68.16;99964.24;27221;1217;3052233;-69
2021/09/28 05:56:14;;;;;;;19.70;8.50;;;;;;;12.28;66.25;99966.98;27221;1217;3026140;-67
2021/09/28 05:58:43;;;;;;;18.20;7.80;;;;;;;12.32;65.64;99970.02;27232;1217;3026204;-68
2021/09/28 06:01:12;;;;;;;26.20;8.30;;;;;;;12.21;65.37;99966.99;27228;1217;3026229;-70
2021/09/28 06:03:41;;;;;;;14.50;8.60;;;;;;;12.12;65.99;99973.02;27205;1217;3053766;-67
2021/09/28 06:06:10;;;;;;;19.70;8.30;;;;;;;12.07;65.94;99974.73;27245;1217;3026199;-69
2021/09/28 06:08:40;;;;;;;16.70;8.80;;;;;;;11.89;66.27;99975.68;27240;1217;3054217;-66
2021/09/28 06:11:10;;;;;;;22.00;8.80;;;;;;;11.88;66.32;99979.05;27219;1217;3026172;-64
2021/09/28 06:13:39;;;;;;;19.90;9.00;;;;;;;11.85;66.82;99985.06;27223;1217;3025968;-69
2021/09/28 06:16:08;;;;;;;13.50;8.30;;;;;;;11.82;66.81;99985.42;27253;1217;3054200;-67
2021/09/28 06:18:57;;;;;;;17.30;9.20;;;;;;;11.85;66.55;99989.41;27231;1220;3052542;-67
2021/09/28 06:21:46;;;;;;;18.60;7.70;;;;;;;11.82;66.55;99987.34;27235;1220;3056432;-69
2021/09/28 06:24:16;;;;;;;21.80;8.60;;;;;;;11.56;67.35;99988.61;27217;1209;3026335;-71
2021/09/28 06:26:45;;;;;;;16.70;6.80;;;;;;;11.61;67.44;99992.37;27269;1217;3026444;-64
2021/09/28 06:29:14;;;;;;;22.50;5.90;;;;;;;12.27;65.85;99993.17;27243;1218;3057439;-70
2021/09/28 06:31:43;;;;;;;18.50;7.30;;;;;;;13.02;63.69;99995.12;27205;1217;3026821;-68
2021/09/28 06:34:14;;;;;;;22.10;7.80;;;;;;;13.27;62.59;99998.14;27235;1218;3026052;-67
2021/09/28 06:36:43;;;;;;;20.30;7.80;;;;;;;13.21;62.10;99999.27;27227;1208;3026542;-71
2021/09/28 06:39:14;;;;;;;21.70;7.90;;;;;;;13.08;62.60;100000.95;27221;1216;3048802;-65
2021/09/28 06:41:44;;;;;;;25.80;9.10;;;;;;;13.11;62.59;100002.52;27241;1217;3025887;-67
2021/09/28 06:44:13;;;;;;;22.60;9.70;;;;;;;12.94;62.88;100000.19;27622;1217;3027331;-68
2021/09/28 06:46:43;;;;;;;23.90;9.30;;;;;;;12.76;63.63;100001.85;28079;1216;3049062;-67
2021/09/28 06:49:12;;;;;;;22.10;10.30;;;;;;;12.79;63.63;100001.66;28159;1216;3025241;-69
2021/09/28 06:51:41;;;;;;;24.70;10.20;;;;;;;12.77;63.68;100002.82;28152;1216;3055506;-66
2021/09/28 06:54:09;;;;;;;33.90;11.80;;;;;;;12.68;63.67;100004.27;27793;1209;3026794;-67
2021/09/28 06:56:40;;;;;;;24.40;10.80;;;;;;;12.61;63.97;100005.58;27578;1217;3051649;-66
2021/09/28 06:59:10;;;;;;;31.10;10.80;;;;;;;12.54;64.34;100011.58;27283;1217;3026590;-66
2021/09/28 07:01:40;;;;;;;21.10;10.40;;;;;;;12.54;64.51;100016.15;27227;1217;3026611;-66
2021/09/28 07:04:09;;;;;;;20.00;10.40;;;;;;;12.56;64.63;100009.04;27280;1217;3026382;-69
2021/09/28 07:06:38;;;;;;;22.00;9.90;;;;;;;12.43;65.05;100010.85;27212;1218;3027360;-67
2021/09/28 07:09:07;;;;;;;22.30;10.60;;;;;;;12.40;65.02;100012.98;27209;1218;3050787;-68
2021/09/28 07:11:36;;;;;;;22.90;10.70;;;;;;;12.46;65.01;100010.68;27251;1209;3026798;-71
2021/09/28 07:14:09;;;;;;;30.00;12.00;;;;;;;12.38;65.42;100015.21;27210;1218;3057201;-67
2021/09/28 07:16:58;;;;;;;35.60;10.70;;;;;;;12.33;65.51;100023.38;27230;1218;3052403;-68
2021/09/28 07:19:27;;;;;;;20.70;9.30;;;;;;;12.26;65.63;100026.24;27219;1217;3026872;-72
2021/09/28 07:21:56;;;;;;;20.00;10.50;;;;;;;12.29;65.68;100030.64;27223;1218;3058847;-65
2021/09/28 07:24:25;;;;;;;25.20;8.50;;;;;;;12.42;65.66;100030.23;27254;1217;3026558;-67
2021/09/28 07:26:54;;;;;;;18.10;6.90;;;;;;;13.20;64.09;100029.01;27197;1218;3053675;-68
2021/09/28 07:29:23;;;;;;;23.40;8.40;;;;;;;14.02;61.78;100027.35;27240;1217;3025862;-66
2021/09/28 07:31:52;;;;;;;23.70;9.10;;;;;;;14.23;60.43;100022.95;27250;1210;3026009;-69
2021/09/28 07:34:21;;;;;;;18.50;8.20;;;;;;;14.25;59.75;100024.27;27209;1217;3054960;-68
2021/09/28 07:36:50;;;;;;;27.30;8.00;;;;;;;14.29;60.00;100029.81;27224;1218;3026490;-68
2021/09/28 07:39:18;;;;;;;24.30;8.50;;;;;;;14.33;59.33;100027.80;27205;1218;3053955;-69
2021/09/28 07:41:48;;;;;;;22.90;8.90;;;;;;;14.25;59.19;100031.27;27283;1218;3026199;-66
2021/09/28 07:44:17;;;;;;;38.30;9.30;;;;;;;14.14;59.31;100027.97;27261;1217;3026505;-66
2021/09/28 07:46:54;;;;;;;30.90;8.40;;;;;;;13.99;59.71;100033.36;27293;1218;3054608;-66
2021/09/28 07:49:23;;;;;;;36.20;9.30;;;;;;;13.84;59.94;100030.98;27215;1218;3026820;-65
2021/09/28 07:51:52;;;;;;;25.20;9.30;;;;;;;13.86;60.16;100028.73;27242;1218;3051829;-65
2021/09/28 07:54:22;;;;;;;23.10;8.30;;;;;;;13.92;60.26;100024.30;27219;1218;3025880;-67
2021/09/28 07:56:51;;;;;;;30.00;8.70;;;;;;;13.99;59.70;100026.15;27239;1219;3026307;-68
2021/09/28 07:59:21;;;;;;;28.50;8.00;;;;;;;14.10;59.45;100023.13;27268;1218;3048569;-65
2021/09/28 08:01:50;;;;;;;34.90;8.50;;;;;;;14.19;59.18;100024.13;27275;1218;3026401;-66
2021/09/28 08:04:20;;;;;;;34.60;7.30;;;;;;;14.20;59.24;100025.13;27221;1219;3070567;-68
2021/09/28 08:06:49;;;;;;;28.80;7.30;;;;;;;14.31;58.19;100021.02;27238;1217;3027825;-69
2021/09/28 08:09:18;;;;;;;28.50;7.00;;;;;;;14.46;57.74;100021.75;27257;1210;3025904;-69
2021/09/28 08:11:57;;;;;;;24.30;8.00;;;;;;;14.51;57.29;100019.16;27183;1219;3069358;-65
2021/09/28 08:14:26;;;;;;;29.90;8.00;;;;;;;14.64;57.02;100019.88;27239;1217;3028536;-67
2021/09/28 08:16:55;;;;;;;26.20;8.90;;;;;;;14.78;57.07;100019.11;27251;1218;3052276;-66
2021/09/28 08:19:25;;;;;;;31.80;7.40;;;;;;;14.75;57.10;100023.34;27204;1217;3026442;-63
2021/09/28 08:22:03;;;;;;;23.80;7.60;;;;;;;14.81;57.12;100024.52;27224;1218;3051684;-67
2021/09/28 08:24:35;;;;;;;49.50;8.90;;;;;;;14.78;56.90;100023.70;27259;1218;3026049;-68
2021/09/28 08:29:52;;;;;;;29.80;7.20;;;;;;;14.65;56.86;100025.42;27213;1219;3056271;-67
2021/09/28 08:32:21;;;;;;;30.80;6.90;;;;;;;14.74;56.83;100024.31;27281;1219;3026667;-70
2021/09/28 08:34:51;;;;;;;34.10;7.70;;;;;;;14.87;56.09;100023.61;27241;1218;3054064;-70
2021/09/28 08:37:20;;;;;;;34.50;6.80;;;;;;;15.05;56.02;100021.47;27214;1219;3026264;-64
2021/09/28 08:39:49;;;;;;;34.40;6.60;;;;;;;15.17;55.31;100015.30;27248;1218;3026037;-65
2021/09/28 08:42:19;;;;;;;29.50;6.80;;;;;;;15.37;54.64;100010.55;27239;1218;3053196;-66
2021/09/28 08:44:48;;;;;;;32.10;6.70;;;;;;;15.55;53.64;100008.36;27196;1219;3027228;-67
2021/09/28 08:47:38;;;;;;;30.00;6.80;;;;;;;15.78;53.52;100009.48;27228;1218;3027891;-69
2021/09/28 08:50:10;;;;;;;23.90;6.50;;;;;;;16.07;52.94;100002.77;27077;1222;3052772;-68
2021/09/28 08:52:43;;;;;;;25.50;6.40;;;;;;;16.21;52.50;100005.45;27119;1221;3026321;-67
2021/09/28 08:55:13;;;;;;;27.50;6.20;;;;;;;16.35;51.07;100004.55;27139;1222;3026496;-65
2021/09/28 08:57:42;;;;;;;26.30;5.60;;;;;;;16.45;50.67;100006.65;27069;1221;3026513;-64
2021/09/28 09:00:17;;;;;;;27.90;5.50;;;;;;;16.49;50.45;100005.62;27139;1221;3055776;-64
2021/09/28 09:02:47;;;;;;;22.40;5.20;;;;;;;16.61;50.49;100008.48;27123;1222;3049835;-64
2021/09/28 09:05:17;;;;;;;24.30;5.40;;;;;;;16.55;50.58;100006.56;27074;1219;3026490;-64
2021/09/28 09:08:06;;;;;;;21.80;4.50;;;;;;;16.49;50.16;100006.52;27161;1221;3027951;-64
2021/09/28 09:10:37;;;;;;;25.00;4.60;;;;;;;16.57;50.42;100007.16;27105;1222;3071280;-64
2021/09/28 09:13:06;;;;;;;26.60;5.10;;;;;;;16.32;50.71;100006.40;27149;1221;3026528;-67
2021/09/28 09:15:36;;;;;;;29.20;5.30;;;;;;;16.24;50.98;100008.08;27105;1221;3053195;-63
2021/09/28 09:18:06;;;;;;;28.70;4.70;;;;;;;16.24;50.79;100007.01;27067;1222;3026814;-66
2021/09/28 09:20:40;;;;;;;30.10;5.00;;;;;;;16.16;50.05;100013.98;27135;1216;3028203;-67
2021/09/28 09:23:14;;;;;;;23.90;4.20;;;;;;;16.13;50.06;100021.44;27194;1222;3054410;-66
2021/09/28 09:25:43;;;;;;;24.40;4.30;;;;;;;16.13;49.98;100025.48;27133;1221;3025830;-65
2021/09/28 09:28:19;;;;;;;24.10;4.00;;;;;;;16.06;50.21;100027.45;27163;1216;3026140;-64
2021/09/28 09:30:47;;;;;;;24.10;4.10;;;;;;;16.06;50.42;100026.58;27203;1219;3048423;-66
2021/09/28 09:33:23;;;;;;;24.90;3.70;;;;;;;15.99;50.54;100031.66;27242;1218;3026149;-65
2021/09/28 09:35:58;;;;;;;29.10;4.40;;;;;;;15.97;50.12;100032.33;27253;1218;3058271;-70
2021/09/28 09:38:27;;;;;;;23.60;4.50;;;;;;;15.91;50.25;100035.61;27222;1218;3049541;-67
2021/09/28 09:40:57;;;;;;;29.10;4.20;;;;;;;15.78;50.61;100038.30;27208;1219;3027029;-67
2021/09/28 09:43:31;;;;;;;21.20;3.30;;;;;;;15.83;50.81;100043.26;27271;1218;3026495;-67
2021/09/28 09:46:20;;;;;;;24.70;4.20;;;;;;;15.87;50.72;100048.96;27234;1219;3066247;-69
2021/09/28 09:48:49;;;;;;;24.70;4.50;;;;;;;15.82;51.11;100043.69;27265;1219;3050304;-66
2021/09/28 09:51:19;;;;;;;32.90;4.80;;;;;;;15.74;51.68;100049.16;27207;1219;3026414;-68
2021/09/28 09:53:49;;;;;;;28.60;4.80;;;;;;;15.73;51.83;100045.20;27262;1218;3071191;-65
2021/09/28 09:56:19;;;;;;;24.80;4.50;;;;;;;15.63;51.89;100044.86;27328;1218;3026395;-67
2021/09/28 09:58:48;;;;;;;22.20;4.20;;;;;;;15.66;51.78;100048.01;27260;1218;3026561;-68
2021/09/28 10:01:17;;;;;;;22.80;4.60;;;;;;;15.73;51.86;100049.05;27237;1217;3028516;-66
2021/09/28 10:03:46;;;;;;;25.70;3.50;;;;;;;15.76;51.45;100049.56;27258;1218;3026530;-67
2021/09/28 10:06:16;;;;;;;39.10;4.60;;;;;;;15.76;51.28;100048.88;27222;1218;3051590;-69
2021/09/28 10:08:45;;;;;;;20.30;4.30;;;;;;;15.78;50.99;100047.67;27234;1218;3026522;-67
2021/09/28 10:11:14;;;;;;;20.30;4.10;;;;;;;15.84;50.69;100047.24;27231;1216;3026354;-68
2021/09/28 10:13:52;;;;;;;21.70;3.90;;;;;;;15.88;50.89;100045.77;27212;1218;3028420;-69
2021/09/28 10:16:31;;;;;;;17.60;3.20;;;;;;;15.87;50.38;100048.09;27210;1218;3051786;-67
2021/09/28 10:19:01;;;;;;;15.30;4.10;;;;;;;15.90;50.99;100052.32;27256;1219;3056672;-69
2021/09/28 10:21:44;;;;;;;20.60;3.60;;;;;;;15.96;50.62;100051.14;27212;1219;3028236;-66
2021/09/28 10:24:29;;;;;;;22.90;3.70;;;;;;;15.96;50.63;100051.50;27219;1220;3052479;-70
2021/09/28 10:26:58;;;;;;;28.10;3.80;;;;;;;16.04;50.53;100052.35;27232;1217;3053358;-68
2021/09/28 10:29:47;;;;;;;16.70;3.70;;;;;;;16.08;50.56;100056.64;27216;1216;3026305;-69
2021/09/28 10:32:34;;;;;;;21.00;4.00;;;;;;;16.01;51.01;100059.28;27262;1219;3053708;-71
2021/09/28 10:35:06;;;;;;;31.60;4.90;;;;;;;15.97;51.48;100055.68;27872;1216;3051376;-70
2021/09/28 10:37:50;;;;;;;32.70;4.90;;;;;;;15.78;51.68;100053.53;27262;1216;3069171;-69
2021/09/28 10:40:20;;;;;;;22.00;4.00;;;;;;;15.82;51.66;100053.06;27232;1219;3051602;-69
2021/09/28 10:43:02;;;;;;;23.00;4.50;;;;;;;15.81;51.17;100050.45;27226;1218;3026190;-67
2021/09/28 10:45:32;;;;;;;34.10;4.50;;;;;;;15.69;51.20;100051.86;27293;1219;3054965;-71
2021/09/28 10:48:03;;;;;;;19.80;3.80;;;;;;;15.85;51.41;100049.84;27261;1209;3026038;-67
2021/09/28 10:50:34;;;;;;;23.80;4.20;;;;;;;16.05;50.65;100051.58;27296;1216;3052573;-66
2021/09/28 10:53:05;;;;;;;23.10;4.40;;;;;;;16.07;50.06;100045.41;27214;1216;3028334;-66
2021/09/28 10:55:39;;;;;;;19.10;4.40;;;;;;;16.09;50.53;100043.63;27281;1216;3026128;-69
2021/09/28 10:58:18;;;;;;;;;;;;;;;16.14;50.70;100045.95;27205;1218;3049842;-68
2021/09/28 11:00:50;;;;;;;26.60;4.30;;;;;;;16.12;51.36;100047.51;27246;1218;3053669;-68
2021/09/28 11:03:42;;;;;;;35.00;5.00;;;;;;;16.08;51.66;100046.18;27213;1219;3027858;-67
2021/09/28 11:06:12;;;;;;;23.00;4.80;;;;;;;16.30;50.75;100047.59;27277;1218;3068570;-68
2021/09/28 11:08:54;;;;;;;21.70;4.50;;;;;;;16.42;50.08;100046.63;27223;1218;3051361;-67
2021/09/28 11:11:45;;;;;;;23.20;4.70;;;;;;;16.36;50.43;100050.45;27238;1217;3052406;-67
2021/09/28 11:14:36;;;;;;;23.20;4.90;;;;;;;16.46;50.59;100049.17;27159;1219;3052436;-68
2021/09/28 11:17:14;;;;;;;18.70;4.30;;;;;;;16.60;50.02;100049.73;27267;1218;3026234;-65
2021/09/28 11:19:44;;;;;;;29.60;4.50;;;;;;;16.56;50.08;100054.07;27185;1219;3048477;-68
2021/09/28 11:22:19;;;;;;;33.50;4.60;;;;;;;16.63;49.47;100050.42;27242;1218;3025821;-67
2021/09/28 11:24:48;;;;;;;35.70;5.10;;;;;;;16.54;49.82;100049.65;27242;1217;3050214;-69
2021/09/28 11:27:17;;;;;;;30.60;5.20;;;;;;;16.59;49.90;100052.63;27182;1219;3026965;-69
2021/09/28 11:29:46;;;;;;;25.90;4.80;;;;;;;16.54;49.70;100053.16;27246;1217;3052082;-68
2021/09/28 11:32:17;;;;;;;29.40;5.40;;;;;;;16.62;49.91;100058.05;27199;1219;3025896;-67
2021/09/28 11:34:46;;;;;;;25.70;5.80;;;;;;;16.64;50.32;100056.66;27263;1222;3026527;-67